sensor_id;sensor_type;location;lat;lon;timestamp;temperature;humidity
322;DHT22;148;51.480;7.208;2024-02-26T15:01:42;8.40;2.20
322;DHT22;148;51.480;7.208;2024-02-26T15:04:08;8.60;2.20
322;DHT22;148;51.480;7.208;2024-02-26T15:06:34;9.00;7.30
322;DHT22;148;51.480;7.208;2024-02-26T15:09:00;9.10;18.40
322;DHT22;148;51.480;7.208;2024-02-26T15:11:25;9.30;23.00
322;DHT22;148;51.480;7.208;2024-02-26T15:13:51;9.20;23.80
322;DHT22;148;51.480;7.208;2024-02-26T15:16:18;9.10;27.50
322;DHT22;148;51.480;7.208;2024-02-26T17:18:01;7.80;2.00
322;DHT22;148;51.480;7.208;2024-02-26T17:20:27;8.00;0.50
322;DHT22;148;51.480;7.208;2024-02-26T17:22:52;8.30;1.40
322;DHT22;148;51.480;7.208;2024-02-26T17:25:18;8.70;5.40
322;DHT22;148;51.480;7.208;2024-02-26T17:27:44;9.00;7.00
322;DHT22;148;51.480;7.208;2024-02-26T17:30:10;9.10;14.00
322;DHT22;148;51.480;7.208;2024-02-26T17:32:35;9.30;17.20
322;DHT22;148;51.480;7.208;2024-02-26T17:35:01;9.50;23.20
322;DHT22;148;51.480;7.208;2024-02-26T17:37:29;9.50;23.10
322;DHT22;148;51.480;7.208;2024-02-26T17:39:54;9.50;23.00
322;DHT22;148;51.480;7.208;2024-02-26T17:42:20;9.60;26.50
322;DHT22;148;51.480;7.208;2024-02-26T17:44:45;9.50;27.60
322;DHT22;148;51.480;7.208;2024-02-26T17:47:11;9.60;26.30
322;DHT22;148;51.480;7.208;2024-02-26T17:49:38;9.40;26.90
322;DHT22;148;51.480;7.208;2024-02-26T17:52:04;9.50;27.80
322;DHT22;148;51.480;7.208;2024-02-26T17:54:30;9.40;27.60
322;DHT22;148;51.480;7.208;2024-02-26T17:56:55;9.50;27.80
322;DHT22;148;51.480;7.208;2024-02-26T17:59:22;9.60;27.30
322;DHT22;148;51.480;7.208;2024-02-26T18:01:48;9.60;30.60
322;DHT22;148;51.480;7.208;2024-02-26T18:04:13;9.50;31.30
322;DHT22;148;51.480;7.208;2024-02-26T18:06:39;9.60;31.00
322;DHT22;148;51.480;7.208;2024-02-26T18:09:06;9.40;29.70
322;DHT22;148;51.480;7.208;2024-02-26T18:11:33;9.50;30.20
322;DHT22;148;51.480;7.208;2024-02-26T18:14:00;9.30;29.10
322;DHT22;148;51.480;7.208;2024-02-26T18:16:27;9.50;28.40
322;DHT22;148;51.480;7.208;2024-02-26T18:18:53;9.40;29.70
322;DHT22;148;51.480;7.208;2024-02-26T18:21:18;9.50;26.20
322;DHT22;148;51.480;7.208;2024-02-26T18:23:50;9.60;28.30
322;DHT22;148;51.480;7.208;2024-02-26T18:26:15;9.60;30.10
322;DHT22;148;51.480;7.208;2024-02-26T18:28:45;9.70;30.50
322;DHT22;148;51.480;7.208;2024-02-26T18:31:11;9.70;31.10
322;DHT22;148;51.480;7.208;2024-02-26T18:33:37;9.60;30.40
322;DHT22;148;51.480;7.208;2024-02-26T18:36:04;9.60;30.20
322;DHT22;148;51.480;7.208;2024-02-26T18:38:31;9.70;30.80
322;DHT22;148;51.480;7.208;2024-02-26T18:40:56;9.70;30.70
322;DHT22;148;51.480;7.208;2024-02-26T18:43:22;9.60;31.70
322;DHT22;148;51.480;7.208;2024-02-26T18:45:47;9.40;28.30
322;DHT22;148;51.480;7.208;2024-02-26T18:48:13;9.40;26.00
322;DHT22;148;51.480;7.208;2024-02-26T18:50:39;9.50;25.80
322;DHT22;148;51.480;7.208;2024-02-26T18:53:05;9.50;25.20
322;DHT22;148;51.480;7.208;2024-02-26T18:55:31;9.50;26.00
322;DHT22;148;51.480;7.208;2024-02-26T18:57:58;9.40;26.50
322;DHT22;148;51.480;7.208;2024-02-26T19:00:27;9.60;23.50
322;DHT22;148;51.480;7.208;2024-02-26T19:02:52;9.50;25.30
322;DHT22;148;51.480;7.208;2024-02-26T19:05:18;9.40;22.80
322;DHT22;148;51.480;7.208;2024-02-26T19:07:48;9.30;19.90
322;DHT22;148;51.480;7.208;2024-02-26T19:10:13;9.40;20.80
322;DHT22;148;51.480;7.208;2024-02-26T19:12:39;9.40;20.70
322;DHT22;148;51.480;7.208;2024-02-26T19:15:06;9.50;19.30
322;DHT22;148;51.480;7.208;2024-02-26T19:17:32;9.40;20.80
322;DHT22;148;51.480;7.208;2024-02-26T19:19:58;9.50;18.60
322;DHT22;148;51.480;7.208;2024-02-26T19:22:24;9.40;21.60
322;DHT22;148;51.480;7.208;2024-02-26T19:24:49;9.20;18.50
322;DHT22;148;51.480;7.208;2024-02-26T19:27:16;9.20;17.40
322;DHT22;148;51.480;7.208;2024-02-26T19:29:42;9.10;16.30
322;DHT22;148;51.480;7.208;2024-02-26T19:32:07;9.00;14.40
322;DHT22;148;51.480;7.208;2024-02-26T19:34:37;8.90;11.10
322;DHT22;148;51.480;7.208;2024-02-26T19:37:04;8.90;10.30
322;DHT22;148;51.480;7.208;2024-02-26T19:39:32;8.70;8.00
322;DHT22;148;51.480;7.208;2024-02-26T19:41:58;8.90;6.60
322;DHT22;148;51.480;7.208;2024-02-26T19:44:23;8.80;8.70
322;DHT22;148;51.480;7.208;2024-02-26T19:46:49;8.70;8.90
322;DHT22;148;51.480;7.208;2024-02-26T19:49:19;8.80;6.20
322;DHT22;148;51.480;7.208;2024-02-26T19:51:45;9.00;8.60
322;DHT22;148;51.480;7.208;2024-02-26T19:54:13;9.10;9.40
322;DHT22;148;51.480;7.208;2024-02-26T19:56:38;9.20;11.70
322;DHT22;148;51.480;7.208;2024-02-26T19:59:04;9.20;17.50
322;DHT22;148;51.480;7.208;2024-02-26T20:01:31;9.00;15.80
322;DHT22;148;51.480;7.208;2024-02-26T20:04:03;9.10;13.20
322;DHT22;148;51.480;7.208;2024-02-26T20:06:28;9.00;15.60
322;DHT22;148;51.480;7.208;2024-02-26T20:08:54;9.00;16.30
322;DHT22;148;51.480;7.208;2024-02-26T20:11:20;8.80;13.90
322;DHT22;148;51.480;7.208;2024-02-26T20:13:45;8.70;11.80
322;DHT22;148;51.480;7.208;2024-02-26T20:16:12;8.70;8.70
322;DHT22;148;51.480;7.208;2024-02-26T20:18:38;8.90;8.00
322;DHT22;148;51.480;7.208;2024-02-26T20:21:03;9.00;11.60
322;DHT22;148;51.480;7.208;2024-02-26T20:23:29;9.20;12.20
322;DHT22;148;51.480;7.208;2024-02-26T20:25:55;9.30;16.30
322;DHT22;148;51.480;7.208;2024-02-26T20:28:23;9.20;19.40
322;DHT22;148;51.480;7.208;2024-02-26T20:30:49;8.90;17.10
322;DHT22;148;51.480;7.208;2024-02-26T20:33:14;8.80;13.70
322;DHT22;148;51.480;7.208;2024-02-26T20:35:40;8.70;11.50
322;DHT22;148;51.480;7.208;2024-02-26T20:38:06;8.70;9.50
322;DHT22;148;51.480;7.208;2024-02-26T20:40:32;9.00;9.00
322;DHT22;148;51.480;7.208;2024-02-26T20:42:57;9.10;10.70
322;DHT22;148;51.480;7.208;2024-02-26T20:45:23;9.00;15.10
322;DHT22;148;51.480;7.208;2024-02-26T20:47:50;9.10;13.10
322;DHT22;148;51.480;7.208;2024-02-26T20:50:18;9.00;16.10
322;DHT22;148;51.480;7.208;2024-02-26T20:52:50;9.10;13.10
322;DHT22;148;51.480;7.208;2024-02-26T20:55:16;9.20;13.80
322;DHT22;148;51.480;7.208;2024-02-26T20:57:42;9.30;15.80
322;DHT22;148;51.480;7.208;2024-02-26T21:00:08;9.30;18.10
322;DHT22;148;51.480;7.208;2024-02-26T21:02:35;9.20;18.40
322;DHT22;148;51.480;7.208;2024-02-26T21:05:01;9.30;15.80
322;DHT22;148;51.480;7.208;2024-02-26T21:07:26;9.50;16.60
322;DHT22;148;51.480;7.208;2024-02-26T21:09:52;9.20;18.50
322;DHT22;148;51.480;7.208;2024-02-26T21:12:19;9.20;14.80
322;DHT22;148;51.480;7.208;2024-02-26T21:14:45;9.20;15.00
322;DHT22;148;51.480;7.208;2024-02-26T21:17:10;9.10;14.40
322;DHT22;148;51.480;7.208;2024-02-26T21:19:36;9.10;11.30
322;DHT22;148;51.480;7.208;2024-02-26T21:22:02;9.00;10.60
322;DHT22;148;51.480;7.208;2024-02-26T21:24:27;9.00;7.90
322;DHT22;148;51.480;7.208;2024-02-26T21:26:53;9.10;8.90
322;DHT22;148;51.480;7.208;2024-02-26T21:29:18;8.90;6.50
322;DHT22;148;51.480;7.208;2024-02-26T21:31:44;8.90;3.40
322;DHT22;148;51.480;7.208;2024-02-26T21:34:10;8.80;4.20
322;DHT22;148;51.480;7.208;2024-02-26T21:36:36;8.80;0.50
322;DHT22;148;51.480;7.208;2024-02-26T21:39:02;9.00;99.90
322;DHT22;148;51.480;7.208;2024-02-26T21:41:30;8.90;99.90
322;DHT22;148;51.480;7.208;2024-02-26T21:43:56;8.70;99.90
322;DHT22;148;51.480;7.208;2024-02-26T21:46:23;8.90;99.90
322;DHT22;148;51.480;7.208;2024-02-26T21:48:49;8.70;99.90
322;DHT22;148;51.480;7.208;2024-02-26T21:51:15;8.70;99.90
322;DHT22;148;51.480;7.208;2024-02-26T21:53:40;8.60;99.90
322;DHT22;148;51.480;7.208;2024-02-26T21:56:06;8.50;99.90
322;DHT22;148;51.480;7.208;2024-02-26T21:58:33;8.50;99.90
322;DHT22;148;51.480;7.208;2024-02-26T22:00:58;8.60;99.90
322;DHT22;148;51.480;7.208;2024-02-26T22:03:24;8.80;99.90
322;DHT22;148;51.480;7.208;2024-02-26T22:09:11;8.70;99.90
322;DHT22;148;51.480;7.208;2024-02-26T22:11:40;8.90;99.90
322;DHT22;148;51.480;7.208;2024-02-26T22:14:08;8.80;99.90
322;DHT22;148;51.480;7.208;2024-02-26T22:16:34;8.60;99.90
322;DHT22;148;51.480;7.208;2024-02-26T22:19:00;8.50;99.90
322;DHT22;148;51.480;7.208;2024-02-26T22:21:32;8.50;99.90
322;DHT22;148;51.480;7.208;2024-02-26T22:23:58;8.50;99.90
322;DHT22;148;51.480;7.208;2024-02-26T22:26:24;8.60;99.90
322;DHT22;148;51.480;7.208;2024-02-26T22:28:50;8.60;99.90
322;DHT22;148;51.480;7.208;2024-02-26T22:31:16;8.80;99.90
322;DHT22;148;51.480;7.208;2024-02-26T22:33:43;8.70;99.90
322;DHT22;148;51.480;7.208;2024-02-26T22:36:09;8.60;1.60
322;DHT22;148;51.480;7.208;2024-02-26T22:38:34;8.30;99.90
322;DHT22;148;51.480;7.208;2024-02-26T22:44:31;8.40;99.90
322;DHT22;148;51.480;7.208;2024-02-26T22:46:58;8.60;99.90
322;DHT22;148;51.480;7.208;2024-02-26T22:49:23;8.70;99.90
322;DHT22;148;51.480;7.208;2024-02-26T22:51:49;8.90;99.90
322;DHT22;148;51.480;7.208;2024-02-26T22:54:15;8.90;3.30
322;DHT22;148;51.480;7.208;2024-02-26T22:56:44;8.90;5.00
322;DHT22;148;51.480;7.208;2024-02-26T22:59:10;9.00;5.30
322;DHT22;148;51.480;7.208;2024-02-26T23:01:35;8.80;6.80
322;DHT22;148;51.480;7.208;2024-02-26T23:04:02;8.80;7.60
322;DHT22;148;51.480;7.208;2024-02-26T23:06:27;8.70;6.50
322;DHT22;148;51.480;7.208;2024-02-26T23:08:53;8.70;4.80
322;DHT22;148;51.480;7.208;2024-02-26T23:11:18;8.70;4.40
322;DHT22;148;51.480;7.208;2024-02-26T23:13:44;8.60;4.40
322;DHT22;148;51.480;7.208;2024-02-26T23:16:47;8.70;3.90
322;DHT22;148;51.480;7.208;2024-02-26T23:19:15;8.70;5.90
322;DHT22;148;51.480;7.208;2024-02-26T23:21:40;8.70;7.30
322;DHT22;148;51.480;7.208;2024-02-26T23:24:07;8.60;7.50
322;DHT22;148;51.480;7.208;2024-02-26T23:26:33;8.60;7.10
322;DHT22;148;51.480;7.208;2024-02-26T23:28:59;8.60;9.10
322;DHT22;148;51.480;7.208;2024-02-26T23:31:24;8.40;6.70
322;DHT22;148;51.480;7.208;2024-02-26T23:33:50;8.50;4.40
322;DHT22;148;51.480;7.208;2024-02-26T23:36:15;8.50;4.50
322;DHT22;148;51.480;7.208;2024-02-26T23:38:41;8.60;6.00
322;DHT22;148;51.480;7.208;2024-02-26T23:41:07;8.50;6.30
322;DHT22;148;51.480;7.208;2024-02-26T23:43:32;8.70;4.40
322;DHT22;148;51.480;7.208;2024-02-26T23:45:58;8.70;10.80
322;DHT22;148;51.480;7.208;2024-02-26T23:48:24;8.70;10.30
322;DHT22;148;51.480;7.208;2024-02-26T23:50:49;8.60;9.50
322;DHT22;148;51.480;7.208;2024-02-26T23:53:15;8.60;10.70
322;DHT22;148;51.480;7.208;2024-02-26T23:55:40;8.40;8.00
322;DHT22;148;51.480;7.208;2024-02-26T23:58:06;8.30;7.00
